Webster, Illinois
Current Conditions -  °F | °C
As of 6:15 PM on Friday 24 Oct 2014 (Local Time) from KMQB Reporting Station
Clear Clear  
Wind Chill: 65°   Ceiling: Unl
Heat Index: 65°   Visibility: 10mi
Dew Point: 53°   Wind: 8mph
Humidity: 66%   Direction: 170°S
Pressure: 29.95"   Gusts: NA
Location:  40.4155°N, 91.0269°W
Report Text: KMQB 242315Z AUTO 17007KT 10SM CLR 18/12 A2995 RMK AO2 T01820118
Loading
Personal Weather Stations






























Interactive Weather Map
Tropical Storm Tracking
New forecast layout! Learn more

10-Day Weather Forecast

Advertisements
Track Severe Weather on mobile